Time;durP1;ratioP1;P1;durP2;ratioP2;P2;SDS_P1;SDS_P2;PMS_P1;PMS_P2;Temp;Humidity;BMP_temperature;BMP_pressure;BME280_temperature;BME280_humidity;BME280_pressure;Samples;Min_cycle;Max_cycle;Signal;HPM_P1;HPM_P2
2021/03/22 07:11:56;;;;;;;26.83;14.32;;;;;;;;;;5085657;27;20387;-66
2021/03/22 07:14:23;;;;;;;23.20;12.77;;;;;;;;;;5075567;28;20453;-67
2021/03/22 07:17:01;;;;;;;22.23;13.07;;;;;;;;;;5075664;28;20067;-64
2021/03/22 07:19:27;;;;;;;25.55;13.48;;;;;;;;;;5051316;28;20082;-66
2021/03/22 07:21:55;;;;;;;23.63;12.45;;;;;;;;;;5068118;28;20024;-66
2021/03/22 07:24:27;;;;;;;20.90;12.52;;;;;;;;;;5069255;28;20100;-66
2021/03/22 07:26:56;;;;;;;23.33;11.75;;;;;;;;;;5085840;28;20158;-66
2021/03/22 07:29:31;;;;;;;21.02;10.95;;;;;;;;;;5069259;28;20068;-68
2021/03/22 07:31:57;;;;;;;18.20;9.95;;;;;;;;;;5078663;28;20102;-66
2021/03/22 07:34:32;;;;;;;19.83;10.85;;;;;;;;;;5067035;28;20124;-66
2021/03/22 07:37:07;;;;;;;18.00;11.63;;;;;;;;;;5070021;28;20081;-68
2021/03/22 07:39:32;;;;;;;17.45;10.50;;;;;;;;;;5048989;28;20017;-66
2021/03/22 07:42:01;;;;;;;20.33;11.02;;;;;;;;;;5050797;28;20025;-67
2021/03/22 07:44:34;;;;;;;17.55;10.77;;;;;;;;;;5063751;28;20028;-65
2021/03/22 07:47:09;;;;;;;18.70;11.75;;;;;;;;;;5068394;28;20094;-65
2021/03/22 07:49:44;;;;;;;20.67;10.85;;;;;;;;;;5072815;28;20040;-65
2021/03/22 07:52:15;;;;;;;18.08;10.98;;;;;;;;;;5078293;28;20036;-66
2021/03/22 07:54:50;;;;;;;19.10;11.10;;;;;;;;;;5056510;28;20131;-66
2021/03/22 07:57:22;;;;;;;21.38;10.75;;;;;;;;;;5069649;28;20384;-67
2021/03/22 07:59:55;;;;;;;18.40;10.48;;;;;;;;;;5070685;28;20024;-67
2021/03/22 08:02:22;;;;;;;18.27;10.82;;;;;;;;;;5069341;28;20025;-67
2021/03/22 08:04:54;;;;;;;17.92;10.65;;;;;;;;;;5065856;28;20376;-67
2021/03/22 08:07:29;;;;;;;17.55;9.88;;;;;;;;;;5079608;28;20046;-66
2021/03/22 08:10:14;;;;;;;23.70;11.35;;;;;;;;;;5082158;28;20045;-66
2021/03/22 08:12:49;;;;;;;18.52;9.98;;;;;;;;;;5062448;28;20031;-66
2021/03/22 08:15:14;;;;;;;16.65;9.82;;;;;;;;;;5078446;28;20024;-67
2021/03/22 08:17:47;;;;;;;18.25;11.38;;;;;;;;;;5071854;28;20024;-67
2021/03/22 08:20:23;;;;;;;18.25;10.32;;;;;;;;;;5071654;28;20389;-67
2021/03/22 08:22:52;;;;;;;14.13;9.82;;;;;;;;;;5067663;28;20012;-67
2021/03/22 08:25:27;;;;;;;17.30;10.35;;;;;;;;;;5043230;28;20048;-65
2021/03/22 08:28:02;;;;;;;19.05;10.73;;;;;;;;;;5054912;28;20107;-67
2021/03/22 08:30:27;;;;;;;20.23;10.93;;;;;;;;;;5053628;28;20400;-67
2021/03/22 08:33:02;;;;;;;18.27;10.93;;;;;;;;;;5054129;28;20021;-66
2021/03/22 08:35:31;;;;;;;17.02;10.85;;;;;;;;;;5053203;28;20094;-68
2021/03/22 08:37:59;;;;;;;16.50;10.35;;;;;;;;;;5054617;28;20020;-68
2021/03/22 08:40:28;;;;;;;17.67;9.43;;;;;;;;;;5036506;28;20458;-68
2021/03/22 08:42:57;;;;;;;15.38;9.18;;;;;;;;;;5053490;28;20462;-68
2021/03/22 08:45:32;;;;;;;16.55;10.32;;;;;;;;;;5036517;28;20043;-66
2021/03/22 08:48:07;;;;;;;14.82;9.75;;;;;;;;;;5052458;28;20019;-66
2021/03/22 08:50:34;;;;;;;16.77;10.25;;;;;;;;;;5057625;28;20485;-67
2021/03/22 08:53:03;;;;;;;19.42;11.23;;;;;;;;;;5059107;28;20078;-66
2021/03/22 08:55:43;;;;;;;19.88;11.20;;;;;;;;;;5059555;28;20028;-67
2021/03/22 08:58:09;;;;;;;17.45;11.10;;;;;;;;;;5066632;28;20128;-66
2021/03/22 09:00:37;;;;;;;17.58;10.85;;;;;;;;;;5048672;28;20116;-66
2021/03/22 09:03:12;;;;;;;16.73;11.10;;;;;;;;;;5055755;28;20021;-66
2021/03/22 09:05:37;;;;;;;17.42;10.75;;;;;;;;;;5065309;28;20052;-66
2021/03/22 09:08:12;;;;;;;20.08;12.15;;;;;;;;;;5057389;28;20052;-66
2021/03/22 09:10:40;;;;;;;21.50;11.98;;;;;;;;;;5056650;28;20081;-67
2021/03/22 09:13:07;;;;;;;19.77;11.25;;;;;;;;;;5062959;28;20021;-66
2021/03/22 09:15:37;;;;;;;18.48;11.02;;;;;;;;;;5062856;28;20012;-66
2021/03/22 09:18:03;;;;;;;19.38;11.35;;;;;;;;;;5060107;28;20437;-66
2021/03/22 09:20:28;;;;;;;17.42;11.10;;;;;;;;;;5059826;28;20025;-66
2021/03/22 09:22:55;;;;;;;18.15;10.68;;;;;;;;;;5064480;28;20020;-65
2021/03/22 09:25:30;;;;;;;20.70;10.98;;;;;;;;;;5066930;28;20074;-66
2021/03/22 09:28:05;;;;;;;23.73;11.93;;;;;;;;;;5054393;28;20035;-65
2021/03/22 09:30:36;;;;;;;22.35;10.88;;;;;;;;;;5064327;28;20029;-64
2021/03/22 09:33:01;;;;;;;23.30;10.88;;;;;;;;;;5050093;28;20021;-63
2021/03/22 09:35:46;;;;;;;16.05;9.65;;;;;;;;;;5051298;28;20051;-64
2021/03/22 09:38:17;;;;;;;15.55;10.98;;;;;;;;;;5051556;28;20020;-64
2021/03/22 09:40:48;;;;;;;21.05;11.00;;;;;;;;;;5053058;28;20032;-64
2021/03/22 09:43:16;;;;;;;18.48;10.38;;;;;;;;;;5053863;28;20021;-64
2021/03/22 09:45:51;;;;;;;18.37;10.80;;;;;;;;;;5062654;28;20476;-65
2021/03/22 09:48:17;;;;;;;18.42;11.20;;;;;;;;;;5058131;28;20024;-63
2021/03/22 09:50:44;;;;;;;19.67;10.32;;;;;;;;;;5061735;28;20400;-66
2021/03/22 09:53:19;;;;;;;17.70;10.75;;;;;;;;;;5064627;28;20017;-64
2021/03/22 09:56:00;;;;;;;15.88;9.70;;;;;;;;;;5042554;28;20021;-64
2021/03/22 09:58:33;;;;;;;15.23;10.02;;;;;;;;;;5056733;28;20381;-64
2021/03/22 10:00:59;;;;;;;15.55;10.23;;;;;;;;;;5051873;28;20029;-64
2021/03/22 10:03:28;;;;;;;19.65;10.88;;;;;;;;;;5050972;28;20109;-64
2021/03/22 10:05:55;;;;;;;19.13;10.57;;;;;;;;;;5058105;28;20101;-65
2021/03/22 10:08:23;;;;;;;16.75;10.57;;;;;;;;;;5072174;28;20436;-64
2021/03/22 10:10:51;;;;;;;16.15;10.05;;;;;;;;;;5072888;28;20120;-66
2021/03/22 10:13:26;;;;;;;16.27;9.65;;;;;;;;;;5072860;28;20012;-65
2021/03/22 10:15:54;;;;;;;17.00;9.80;;;;;;;;;;5067684;28;20020;-64
2021/03/22 10:18:29;;;;;;;21.38;12.02;;;;;;;;;;5034911;28;20017;-64
2021/03/22 10:21:04;;;;;;;17.90;11.38;;;;;;;;;;5053261;28;20036;-64
2021/03/22 10:23:32;;;;;;;16.65;10.07;;;;;;;;;;5034363;28;20017;-66
2021/03/22 10:26:05;;;;;;;13.40;9.70;;;;;;;;;;5061199;28;20032;-66
2021/03/22 10:28:31;;;;;;;19.13;10.85;;;;;;;;;;5047460;28;20025;-66
2021/03/22 10:30:56;;;;;;;15.48;10.48;;;;;;;;;;5058250;28;20496;-66
2021/03/22 10:33:22;;;;;;;14.50;9.35;;;;;;;;;;5045117;28;20029;-64
2021/03/22 10:35:57;;;;;;;15.15;8.65;;;;;;;;;;5032315;28;20096;-64
2021/03/22 10:38:23;;;;;;;14.95;9.35;;;;;;;;;;5031212;28;20026;-64
2021/03/22 10:40:49;;;;;;;15.27;9.52;;;;;;;;;;5031133;28;20029;-64
2021/03/22 10:43:32;;;;;;;14.55;8.70;;;;;;;;;;5031276;28;20446;-64
2021/03/22 10:45:58;;;;;;;13.05;8.35;;;;;;;;;;5030971;28;20026;-65
2021/03/22 10:48:29;;;;;;;17.30;8.75;;;;;;;;;;5031239;28;20421;-65
2021/03/22 10:50:59;;;;;;;13.05;8.15;;;;;;;;;;5031043;28;20060;-64
2021/03/22 10:53:24;;;;;;;;;;;;;;;;;;5031435;28;20013;-64
2021/03/22 10:55:49;;;;;;;14.90;9.03;;;;;;;;;;5032778;28;19905;-64
2021/03/22 10:58:21;;;;;;;12.82;8.77;;;;;;;;;;5032429;28;20309;-64
2021/03/22 11:00:47;;;;;;;17.05;8.65;;;;;;;;;;5032129;28;20032;-64
2021/03/22 11:03:25;;;;;;;13.50;8.40;;;;;;;;;;5030693;28;20386;-64
2021/03/22 11:05:51;;;;;;;14.45;8.75;;;;;;;;;;5032423;28;20021;-65
2021/03/22 11:08:24;;;;;;;13.40;7.97;;;;;;;;;;5030526;28;20036;-65
2021/03/22 11:11:03;;;;;;;15.80;8.25;;;;;;;;;;5030483;28;20046;-65
2021/03/22 11:13:29;;;;;;;12.35;7.80;;;;;;;;;;5032101;28;20021;-65
2021/03/22 11:15:55;;;;;;;13.93;7.95;;;;;;;;;;5030960;28;20105;-64
2021/03/22 11:18:22;;;;;;;12.68;8.52;;;;;;;;;;5031112;28;20049;-65
2021/03/22 11:20:49;;;;;;;14.48;7.78;;;;;;;;;;5032252;28;20021;-65
2021/03/22 11:23:15;;;;;;;11.65;7.57;;;;;;;;;;5030359;28;20274;-65
2021/03/22 11:25:41;;;;;;;17.48;8.65;;;;;;;;;;5031071;28;20160;-64
2021/03/22 11:38:31;;;;;;;10.68;6.60;;;;;;;;;;5233858;23;20053;-67
2021/03/22 11:40:56;;;;;;;9.75;5.80;;;;;;;;;;5031677;28;20097;-65
2021/03/22 11:43:23;;;;;;;11.52;7.85;;;;;;;;;;5030173;28;20051;-63
2021/03/22 11:45:48;;;;;;;12.02;7.82;;;;;;;;;;5032553;28;20432;-63
2021/03/22 11:48:21;;;;;;;12.30;7.50;;;;;;;;;;5046892;28;20017;-64
2021/03/22 11:50:48;;;;;;;13.50;7.68;;;;;;;;;;5021630;28;20017;-65
2021/03/22 11:53:18;;;;;;;15.70;7.75;;;;;;;;;;5026582;28;20484;-63
2021/03/22 11:55:43;;;;;;;14.10;7.72;;;;;;;;;;5035065;28;20025;-64
2021/03/22 11:58:18;;;;;;;12.95;6.85;;;;;;;;;;5040554;28;20497;-62
2021/03/22 12:00:43;;;;;;;10.82;7.43;;;;;;;;;;5040727;28;20017;-64
2021/03/22 12:03:18;;;;;;;13.85;7.15;;;;;;;;;;5046252;28;20132;-63
2021/03/22 12:05:43;;;;;;;11.90;6.47;;;;;;;;;;5050440;28;20063;-64
2021/03/22 12:08:18;;;;;;;11.00;6.22;;;;;;;;;;5022559;28;20489;-63
2021/03/22 12:10:43;;;;;;;11.43;7.10;;;;;;;;;;5043259;28;20052;-64
2021/03/22 12:13:08;;;;;;;12.68;6.88;;;;;;;;;;5039358;28;20048;-64
2021/03/22 12:15:34;;;;;;;12.90;7.03;;;;;;;;;;5034420;28;20028;-64
2021/03/22 12:18:04;;;;;;;13.48;7.05;;;;;;;;;;5053454;28;20017;-62
2021/03/22 12:20:30;;;;;;;13.25;7.25;;;;;;;;;;5041302;28;20025;-65
2021/03/22 12:22:56;;;;;;;12.82;7.70;;;;;;;;;;5041804;28;20025;-64
2021/03/22 12:25:36;;;;;;;13.43;7.22;;;;;;;;;;5042824;28;20013;-64
2021/03/22 12:28:03;;;;;;;10.50;6.90;;;;;;;;;;5300139;22;20076;-65
2021/03/22 12:30:28;;;;;;;9.60;6.53;;;;;;;;;;5026321;28;20014;-65
2021/03/22 12:32:54;;;;;;;11.50;8.07;;;;;;;;;;5036007;28;20025;-65
2021/03/22 12:35:25;;;;;;;13.77;7.85;;;;;;;;;;5028389;28;20028;-62
2021/03/22 12:37:51;;;;;;;12.20;7.53;;;;;;;;;;5032767;28;20061;-64
2021/03/22 12:40:20;;;;;;;12.35;6.68;;;;;;;;;;5025935;28;20061;-65
2021/03/22 12:42:49;;;;;;;16.00;8.10;;;;;;;;;;5023813;28;20017;-67
2021/03/22 12:45:19;;;;;;;12.93;7.28;;;;;;;;;;5017928;28;20124;-65
2021/03/22 12:47:44;;;;;;;14.90;7.32;;;;;;;;;;5030044;28;20394;-65
2021/03/22 12:50:19;;;;;;;10.57;6.00;;;;;;;;;;5033673;28;20013;-65
2021/03/22 12:52:46;;;;;;;10.88;5.85;;;;;;;;;;5023471;28;20026;-64
2021/03/22 12:55:12;;;;;;;13.27;6.05;;;;;;;;;;5011870;28;20038;-62
2021/03/22 12:57:38;;;;;;;10.20;5.60;;;;;;;;;;5014789;28;20483;-65
2021/03/22 13:00:04;;;;;;;10.30;5.65;;;;;;;;;;5033820;28;20115;-63
2021/03/22 13:02:29;;;;;;;11.65;5.40;;;;;;;;;;5020468;28;20022;-64
2021/03/22 13:04:55;;;;;;;12.27;5.45;;;;;;;;;;5012654;28;20554;-63
2021/03/22 13:07:20;;;;;;;11.32;5.90;;;;;;;;;;5026584;28;20033;-63
2021/03/22 13:09:47;;;;;;;11.73;5.85;;;;;;;;;;5017934;28;20033;-63
2021/03/22 13:12:21;;;;;;;9.82;5.63;;;;;;;;;;5025832;28;20020;-65
2021/03/22 13:14:47;;;;;;;11.43;5.50;;;;;;;;;;5012320;28;20380;-66
2021/03/22 13:17:13;;;;;;;8.75;5.32;;;;;;;;;;5028094;28;20025;-65
2021/03/22 13:19:39;;;;;;;9.82;5.30;;;;;;;;;;5014068;28;20029;-65
2021/03/22 13:22:06;;;;;;;10.50;5.57;;;;;;;;;;5027943;28;20437;-65
2021/03/22 13:24:32;;;;;;;8.20;4.80;;;;;;;;;;5020033;28;20435;-66
2021/03/22 13:26:57;;;;;;;7.93;4.80;;;;;;;;;;5019951;28;20049;-65
2021/03/22 13:29:25;;;;;;;9.48;5.38;;;;;;;;;;5026408;28;20131;-65
2021/03/22 13:31:54;;;;;;;10.25;5.40;;;;;;;;;;5015974;28;20033;-66
2021/03/22 13:34:19;;;;;;;10.47;5.40;;;;;;;;;;5025611;28;20026;-64
2021/03/22 13:36:47;;;;;;;8.63;5.00;;;;;;;;;;5022196;28;20021;-64
2021/03/22 13:39:18;;;;;;;9.50;5.18;;;;;;;;;;5018851;28;20021;-65
2021/03/22 13:41:46;;;;;;;7.85;5.05;;;;;;;;;;5028505;28;20045;-63
2021/03/22 13:44:13;;;;;;;8.07;4.63;;;;;;;;;;5012446;28;20478;-65
2021/03/22 13:46:39;;;;;;;7.47;4.60;;;;;;;;;;5022160;28;20084;-65
2021/03/22 13:49:04;;;;;;;7.70;4.97;;;;;;;;;;5015826;28;20033;-65
2021/03/22 13:51:32;;;;;;;8.15;4.57;;;;;;;;;;5005088;28;20022;-66
2021/03/22 13:53:58;;;;;;;11.48;4.80;;;;;;;;;;5005374;28;20485;-66
2021/03/22 13:56:24;;;;;;;8.70;4.78;;;;;;;;;;5011863;28;20026;-65
2021/03/22 13:58:49;;;;;;;7.70;5.10;;;;;;;;;;5011619;28;20374;-64
2021/03/22 14:01:14;;;;;;;9.18;5.10;;;;;;;;;;5011712;28;20018;-64
2021/03/22 14:03:41;;;;;;;17.92;5.78;;;;;;;;;;5013444;28;20607;-66
2021/03/22 14:06:06;;;;;;;10.07;5.35;;;;;;;;;;5013661;28;20021;-65
2021/03/22 14:08:32;;;;;;;10.10;5.93;;;;;;;;;;5013317;28;20032;-64
2021/03/22 14:10:57;;;;;;;11.63;6.72;;;;;;;;;;5011039;28;20022;-64
2021/03/22 14:13:23;;;;;;;13.40;6.70;;;;;;;;;;5009285;28;20030;-64
2021/03/22 14:15:49;;;;;;;12.68;7.03;;;;;;;;;;5014304;28;20080;-64
2021/03/22 14:18:19;;;;;;;13.07;6.20;;;;;;;;;;5014881;28;20060;-65
2021/03/22 14:20:45;;;;;;;15.57;7.80;;;;;;;;;;5008704;28;20049;-67
2021/03/22 14:23:11;;;;;;;14.48;7.15;;;;;;;;;;5023959;28;20030;-65
2021/03/22 14:25:38;;;;;;;9.88;6.78;;;;;;;;;;5015352;28;20049;-66
2021/03/22 14:28:07;;;;;;;14.32;6.75;;;;;;;;;;5022161;28;20136;-64
2021/03/22 14:30:39;;;;;;;13.10;6.70;;;;;;;;;;5011011;28;20013;-65
2021/03/22 14:33:05;;;;;;;9.93;6.55;;;;;;;;;;5023210;28;20573;-63
2021/03/22 14:35:30;;;;;;;12.27;6.43;;;;;;;;;;5017785;28;20022;-66
2021/03/22 14:37:56;;;;;;;19.27;9.65;;;;;;;;;;5019336;28;20076;-66
2021/03/22 14:40:22;;;;;;;45.05;15.68;;;;;;;;;;5011836;28;20037;-67
2021/03/22 14:42:47;;;;;;;32.33;14.27;;;;;;;;;;5009948;28;20014;-67
2021/03/22 14:45:14;;;;;;;31.52;12.75;;;;;;;;;;5006903;28;20482;-66
2021/03/22 14:47:40;;;;;;;18.17;7.18;;;;;;;;;;5018561;28;20963;-66
2021/03/22 14:50:06;;;;;;;56.33;17.33;;;;;;;;;;5010430;28;20100;-65
2021/03/22 14:52:31;;;;;;;46.78;15.10;;;;;;;;;;5011902;28;20022;-64
2021/03/22 14:54:57;;;;;;;22.65;8.55;;;;;;;;;;5013895;28;20037;-65
2021/03/22 14:57:22;;;;;;;22.08;8.10;;;;;;;;;;5008816;28;20018;-64
2021/03/22 14:59:48;;;;;;;10.70;5.53;;;;;;;;;;5012634;28;20482;-63
2021/03/22 15:02:13;;;;;;;9.13;5.43;;;;;;;;;;5011228;28;20382;-63
2021/03/22 15:04:39;;;;;;;10.85;5.85;;;;;;;;;;5010509;28;20499;-63
2021/03/22 15:07:04;;;;;;;9.02;5.15;;;;;;;;;;5012104;28;20022;-64
2021/03/22 15:09:29;;;;;;;20.52;6.63;;;;;;;;;;5010115;28;20112;-64
2021/03/22 15:11:56;;;;;;;7.60;5.07;;;;;;;;;;5011430;28;20048;-64
2021/03/22 15:14:21;;;;;;;18.50;5.20;;;;;;;;;;5001473;28;20018;-64
2021/03/22 15:16:47;;;;;;;13.23;4.78;;;;;;;;;;5021633;28;20036;-63
2021/03/22 15:19:14;;;;;;;8.75;5.18;;;;;;;;;;5015253;28;20022;-63
2021/03/22 15:21:39;;;;;;;9.52;5.18;;;;;;;;;;5011207;28;20033;-62
2021/03/22 15:24:05;;;;;;;12.73;5.50;;;;;;;;;;5027073;28;20040;-63
2021/03/22 15:26:31;;;;;;;12.63;5.97;;;;;;;;;;5007768;28;20075;-65
2021/03/22 15:28:56;;;;;;;10.68;5.88;;;;;;;;;;5597564;22;20053;-65
